sensor_id;sensor_type;location;lat;lon;timestamp;pressure;altitude;pressure_sealevel;temperature;humidity
62864;BME280;48954;59.950;11.014;2023-02-20T00:01:55;98386.68;;;-2.71;71.21
62864;BME280;48954;59.950;11.014;2023-02-20T00:04:22;98375.81;;;-2.68;71.45
62864;BME280;48954;59.950;11.014;2023-02-20T00:06:49;98364.44;;;-2.65;71.64
62864;BME280;48954;59.950;11.014;2023-02-20T00:09:16;98348.98;;;-2.63;71.72
62864;BME280;48954;59.950;11.014;2023-02-20T00:11:43;98335.73;;;-2.60;71.52
62864;BME280;48954;59.950;11.014;2023-02-20T00:14:10;98322.52;;;-2.58;71.69
62864;BME280;48954;59.950;11.014;2023-02-20T00:16:37;98313.98;;;-2.56;71.75
62864;BME280;48954;59.950;11.014;2023-02-20T00:19:04;98304.81;;;-2.54;71.76
62864;BME280;48954;59.950;11.014;2023-02-20T00:21:32;98290.33;;;-2.51;71.86
62864;BME280;48954;59.950;11.014;2023-02-20T00:23:59;98271.84;;;-2.50;72.13
62864;BME280;48954;59.950;11.014;2023-02-20T00:26:25;98257.91;;;-2.48;72.21
62864;BME280;48954;59.950;11.014;2023-02-20T00:28:52;98239.25;;;-2.46;72.64
62864;BME280;48954;59.950;11.014;2023-02-20T00:31:18;98221.84;;;-2.43;72.83
62864;BME280;48954;59.950;11.014;2023-02-20T00:33:45;98209.60;;;-2.40;72.91
62864;BME280;48954;59.950;11.014;2023-02-20T00:36:17;98204.35;;;-2.38;73.16
62864;BME280;48954;59.950;11.014;2023-02-20T00:38:46;98186.83;;;-2.34;73.04
62864;BME280;48954;59.950;11.014;2023-02-20T00:41:13;98174.64;;;-2.33;73.12
62864;BME280;48954;59.950;11.014;2023-02-20T00:43:40;98168.09;;;-2.30;73.23
62864;BME280;48954;59.950;11.014;2023-02-20T00:46:10;98159.17;;;-2.27;73.35
62864;BME280;48954;59.950;11.014;2023-02-20T00:48:37;98147.20;;;-2.24;73.56
62864;BME280;48954;59.950;11.014;2023-02-20T00:51:04;98133.89;;;-2.21;73.70
62864;BME280;48954;59.950;11.014;2023-02-20T00:53:31;98127.71;;;-2.18;73.72
62864;BME280;48954;59.950;11.014;2023-02-20T00:55:59;98118.19;;;-2.14;74.22
62864;BME280;48954;59.950;11.014;2023-02-20T00:58:26;98098.17;;;-2.10;74.24
62864;BME280;48954;59.950;11.014;2023-02-20T01:00:54;98088.91;;;-2.03;74.36
62864;BME280;48954;59.950;11.014;2023-02-20T01:03:21;98080.13;;;-1.95;74.80
62864;BME280;48954;59.950;11.014;2023-02-20T01:05:48;98065.95;;;-1.86;74.86
62864;BME280;48954;59.950;11.014;2023-02-20T01:08:18;98055.27;;;-1.78;74.96
62864;BME280;48954;59.950;11.014;2023-02-20T01:10:45;98034.80;;;-1.71;74.65
62864;BME280;48954;59.950;11.014;2023-02-20T01:13:12;98012.22;;;-1.64;75.33
62864;BME280;48954;59.950;11.014;2023-02-20T01:15:39;98000.67;;;-1.54;75.47
62864;BME280;48954;59.950;11.014;2023-02-20T01:20:32;97953.29;;;-1.37;75.85
62864;BME280;48954;59.950;11.014;2023-02-20T01:22:59;97937.88;;;-1.28;76.09
62864;BME280;48954;59.950;11.014;2023-02-20T01:25:27;97930.13;;;-1.17;76.64
62864;BME280;48954;59.950;11.014;2023-02-20T01:27:54;97917.59;;;-1.06;76.67
62864;BME280;48954;59.950;11.014;2023-02-20T01:30:21;97904.71;;;-0.98;76.82
62864;BME280;48954;59.950;11.014;2023-02-20T01:32:49;97886.86;;;-0.89;77.11
62864;BME280;48954;59.950;11.014;2023-02-20T01:35:16;97864.23;;;-0.82;76.86
62864;BME280;48954;59.950;11.014;2023-02-20T01:37:42;97857.02;;;-0.74;76.73
62864;BME280;48954;59.950;11.014;2023-02-20T01:40:21;97851.99;;;-0.68;77.05
62864;BME280;48954;59.950;11.014;2023-02-20T01:42:49;97841.57;;;-0.62;77.15
62864;BME280;48954;59.950;11.014;2023-02-20T01:45:32;97831.83;;;-0.56;77.03
62864;BME280;48954;59.950;11.014;2023-02-20T01:48:01;97819.92;;;-0.52;76.81
62864;BME280;48954;59.950;11.014;2023-02-20T01:50:41;97816.92;;;-0.47;77.40
62864;BME280;48954;59.950;11.014;2023-02-20T01:53:12;97795.57;;;-0.43;77.25
62864;BME280;48954;59.950;11.014;2023-02-20T01:58:21;97760.95;;;-0.37;77.15
62864;BME280;48954;59.950;11.014;2023-02-20T02:01:03;97750.55;;;-0.33;77.23
62864;BME280;48954;59.950;11.014;2023-02-20T02:03:51;97741.85;;;-0.30;77.27
62864;BME280;48954;59.950;11.014;2023-02-20T02:06:40;97733.02;;;-0.27;77.46
62864;BME280;48954;59.950;11.014;2023-02-20T02:09:27;97705.98;;;-0.25;77.48
62864;BME280;48954;59.950;11.014;2023-02-20T02:12:21;97691.60;;;-0.21;77.54
62864;BME280;48954;59.950;11.014;2023-02-20T02:15:21;97687.77;;;-0.17;77.76
62864;BME280;48954;59.950;11.014;2023-02-20T02:18:25;97676.77;;;-0.15;77.65
62864;BME280;48954;59.950;11.014;2023-02-20T02:27:28;97647.98;;;-0.04;77.82
62864;BME280;48954;59.950;11.014;2023-02-20T03:36:38;97316.52;;;0.76;80.34
62864;BME280;48954;59.950;11.014;2023-02-20T03:39:43;97300.38;;;0.77;80.46
62864;BME280;48954;59.950;11.014;2023-02-20T03:42:46;97284.00;;;0.78;80.85
62864;BME280;48954;59.950;11.014;2023-02-20T03:45:35;97266.89;;;0.81;80.81
62864;BME280;48954;59.950;11.014;2023-02-20T03:48:51;97256.77;;;0.84;81.03
62864;BME280;48954;59.950;11.014;2023-02-20T03:54:26;97233.07;;;0.95;81.81
62864;BME280;48954;59.950;11.014;2023-02-20T03:57:32;97209.30;;;0.97;81.76
62864;BME280;48954;59.950;11.014;2023-02-20T04:00:22;97188.98;;;1.02;81.97
62864;BME280;48954;59.950;11.014;2023-02-20T04:03:18;97165.75;;;1.04;82.07
62864;BME280;48954;59.950;11.014;2023-02-20T04:06:30;97143.14;;;1.08;82.19
62864;BME280;48954;59.950;11.014;2023-02-20T04:09:50;97132.58;;;1.13;82.59
62864;BME280;48954;59.950;11.014;2023-02-20T04:12:45;97114.24;;;1.18;82.77
62864;BME280;48954;59.950;11.014;2023-02-20T04:16:06;97101.41;;;1.23;82.77
62864;BME280;48954;59.950;11.014;2023-02-20T04:49:59;96980.61;;;1.65;83.81
62864;BME280;48954;59.950;11.014;2023-02-20T04:53:39;96959.89;;;1.68;83.84
62864;BME280;48954;59.950;11.014;2023-02-20T04:56:43;96941.05;;;1.73;84.00
62864;BME280;48954;59.950;11.014;2023-02-20T04:59:47;96937.67;;;1.75;84.01
62864;BME280;48954;59.950;11.014;2023-02-20T05:02:29;96917.56;;;1.75;83.97
62864;BME280;48954;59.950;11.014;2023-02-20T05:05:43;96921.84;;;1.77;84.29
62864;BME280;48954;59.950;11.014;2023-02-20T05:08:51;96919.79;;;1.81;84.43
62864;BME280;48954;59.950;11.014;2023-02-20T05:11:32;96906.73;;;1.86;84.44
62864;BME280;48954;59.950;11.014;2023-02-20T05:14:16;96885.21;;;1.85;84.58
62864;BME280;48954;59.950;11.014;2023-02-20T05:17:34;96874.29;;;1.85;84.35
62864;BME280;48954;59.950;11.014;2023-02-20T05:20:15;96860.11;;;1.84;84.61
62864;BME280;48954;59.950;11.014;2023-02-20T05:23:16;96865.13;;;1.82;84.55
62864;BME280;48954;59.950;11.014;2023-02-20T05:26:45;96868.55;;;1.84;84.53
62864;BME280;48954;59.950;11.014;2023-02-20T05:29:37;96857.71;;;1.84;84.69
62864;BME280;48954;59.950;11.014;2023-02-20T05:32:19;96856.20;;;1.86;84.98
62864;BME280;48954;59.950;11.014;2023-02-20T05:34:59;96853.28;;;1.89;85.13
62864;BME280;48954;59.950;11.014;2023-02-20T05:37:33;96847.31;;;1.89;85.01
62864;BME280;48954;59.950;11.014;2023-02-20T05:40:13;96834.17;;;1.90;85.06
62864;BME280;48954;59.950;11.014;2023-02-20T05:42:44;96837.65;;;1.90;85.02
62864;BME280;48954;59.950;11.014;2023-02-20T05:45:14;96831.36;;;1.89;85.14
62864;BME280;48954;59.950;11.014;2023-02-20T05:47:42;96828.05;;;1.91;85.21
62864;BME280;48954;59.950;11.014;2023-02-20T05:50:09;96826.96;;;1.90;85.26
62864;BME280;48954;59.950;11.014;2023-02-20T05:52:37;96831.52;;;1.89;85.39
62864;BME280;48954;59.950;11.014;2023-02-20T05:55:05;96838.73;;;1.90;85.57
62864;BME280;48954;59.950;11.014;2023-02-20T05:57:32;96846.94;;;1.90;85.33
62864;BME280;48954;59.950;11.014;2023-02-20T05:59:58;96852.77;;;1.90;85.63
62864;BME280;48954;59.950;11.014;2023-02-20T06:02:31;96854.69;;;1.91;85.42
62864;BME280;48954;59.950;11.014;2023-02-20T06:04:58;96851.70;;;1.93;85.59
62864;BME280;48954;59.950;11.014;2023-02-20T06:07:28;96846.05;;;1.95;85.67
62864;BME280;48954;59.950;11.014;2023-02-20T06:10:14;96843.04;;;1.96;85.64
62864;BME280;48954;59.950;11.014;2023-02-20T06:12:44;96833.75;;;1.97;85.60
62864;BME280;48954;59.950;11.014;2023-02-20T06:15:11;96834.62;;;1.98;85.70
62864;BME280;48954;59.950;11.014;2023-02-20T06:17:39;96837.33;;;1.98;85.66
62864;BME280;48954;59.950;11.014;2023-02-20T06:20:07;96830.73;;;1.98;85.59
62864;BME280;48954;59.950;11.014;2023-02-20T06:22:34;96835.39;;;1.98;85.80
62864;BME280;48954;59.950;11.014;2023-02-20T06:25:02;96823.46;;;1.98;85.61
62864;BME280;48954;59.950;11.014;2023-02-20T06:27:28;96814.41;;;1.98;85.69
62864;BME280;48954;59.950;11.014;2023-02-20T06:29:58;96810.46;;;1.99;85.70
62864;BME280;48954;59.950;11.014;2023-02-20T06:32:26;96806.60;;;2.00;85.89
62864;BME280;48954;59.950;11.014;2023-02-20T06:34:54;96802.73;;;2.00;85.76
62864;BME280;48954;59.950;11.014;2023-02-20T06:37:22;96804.80;;;1.99;85.84
62864;BME280;48954;59.950;11.014;2023-02-20T06:39:48;96797.67;;;1.98;85.84
62864;BME280;48954;59.950;11.014;2023-02-20T06:42:15;96793.48;;;1.96;85.74
62864;BME280;48954;59.950;11.014;2023-02-20T06:44:43;96784.80;;;1.95;86.01
62864;BME280;48954;59.950;11.014;2023-02-20T06:47:10;96782.77;;;1.92;85.76
62864;BME280;48954;59.950;11.014;2023-02-20T06:49:37;96785.77;;;1.90;85.89
62864;BME280;48954;59.950;11.014;2023-02-20T06:52:04;96785.52;;;1.88;85.88
62864;BME280;48954;59.950;11.014;2023-02-20T06:54:37;96786.29;;;1.87;85.94
62864;BME280;48954;59.950;11.014;2023-02-20T06:57:11;96787.66;;;1.86;86.03
62864;BME280;48954;59.950;11.014;2023-02-20T06:59:44;96789.27;;;1.85;86.17
62864;BME280;48954;59.950;11.014;2023-02-20T07:02:13;96793.53;;;1.85;86.20
62864;BME280;48954;59.950;11.014;2023-02-20T07:04:46;96794.20;;;1.82;86.23
62864;BME280;48954;59.950;11.014;2023-02-20T07:07:35;96796.60;;;1.79;86.04
62864;BME280;48954;59.950;11.014;2023-02-20T07:10:03;96807.30;;;1.74;85.93
62864;BME280;48954;59.950;11.014;2023-02-20T07:12:31;96811.27;;;1.67;85.70
62864;BME280;48954;59.950;11.014;2023-02-20T07:14:58;96808.27;;;1.62;85.57
62864;BME280;48954;59.950;11.014;2023-02-20T07:17:25;96810.84;;;1.57;85.66
62864;BME280;48954;59.950;11.014;2023-02-20T07:19:51;96814.50;;;1.51;85.81
62864;BME280;48954;59.950;11.014;2023-02-20T07:22:19;96815.76;;;1.47;85.77
62864;BME280;48954;59.950;11.014;2023-02-20T07:25:13;96817.28;;;1.45;85.75
62864;BME280;48954;59.950;11.014;2023-02-20T07:28:33;96827.80;;;1.44;86.13
62864;BME280;48954;59.950;11.014;2023-02-20T07:31:15;96835.05;;;1.42;86.00
62864;BME280;48954;59.950;11.014;2023-02-20T07:33:56;96835.58;;;1.39;86.05
62864;BME280;48954;59.950;11.014;2023-02-20T07:36:24;96832.05;;;1.36;85.98
62864;BME280;48954;59.950;11.014;2023-02-20T07:38:56;96837.19;;;1.32;85.71
62864;BME280;48954;59.950;11.014;2023-02-20T07:41:29;96844.80;;;1.27;85.77
62864;BME280;48954;59.950;11.014;2023-02-20T07:44:28;96850.15;;;1.23;86.09
62864;BME280;48954;59.950;11.014;2023-02-20T07:46:56;96867.41;;;1.18;85.91
62864;BME280;48954;59.950;11.014;2023-02-20T07:49:24;96878.98;;;1.14;85.96
62864;BME280;48954;59.950;11.014;2023-02-20T07:51:52;96894.88;;;1.12;86.23
62864;BME280;48954;59.950;11.014;2023-02-20T07:54:35;96901.05;;;1.11;86.52
62864;BME280;48954;59.950;11.014;2023-02-20T07:57:02;96910.80;;;1.12;86.63
62864;BME280;48954;59.950;11.014;2023-02-20T07:59:34;96906.20;;;1.14;86.43
62864;BME280;48954;59.950;11.014;2023-02-20T08:02:03;96909.82;;;1.19;86.98
62864;BME280;48954;59.950;11.014;2023-02-20T08:04:32;96904.39;;;1.23;86.86
62864;BME280;48954;59.950;11.014;2023-02-20T08:07:01;96902.92;;;1.30;86.68
62864;BME280;48954;59.950;11.014;2023-02-20T08:09:35;96901.11;;;1.33;86.83
62864;BME280;48954;59.950;11.014;2023-02-20T08:12:11;96913.39;;;1.38;86.66
62864;BME280;48954;59.950;11.014;2023-02-20T08:14:51;96917.86;;;1.41;86.46
62864;BME280;48954;59.950;11.014;2023-02-20T08:17:32;96910.53;;;1.44;86.53
62864;BME280;48954;59.950;11.014;2023-02-20T08:20:08;96907.81;;;1.44;86.56
62864;BME280;48954;59.950;11.014;2023-02-20T08:22:49;96890.45;;;1.48;86.35
62864;BME280;48954;59.950;11.014;2023-02-20T08:25:29;96881.29;;;1.51;86.43
62864;BME280;48954;59.950;11.014;2023-02-20T08:28:01;96907.65;;;1.55;86.37
62864;BME280;48954;59.950;11.014;2023-02-20T08:30:27;96911.23;;;1.59;86.12
62864;BME280;48954;59.950;11.014;2023-02-20T08:32:54;96901.40;;;1.63;86.36
62864;BME280;48954;59.950;11.014;2023-02-20T08:35:21;96900.23;;;1.70;86.21
62864;BME280;48954;59.950;11.014;2023-02-20T08:37:47;96903.01;;;1.83;86.39
62864;BME280;48954;59.950;11.014;2023-02-20T08:40:13;96903.83;;;1.95;86.51
62864;BME280;48954;59.950;11.014;2023-02-20T08:42:54;96890.03;;;2.10;86.47
62864;BME280;48954;59.950;11.014;2023-02-20T08:45:24;96885.33;;;2.21;86.27
62864;BME280;48954;59.950;11.014;2023-02-20T08:47:55;96891.09;;;2.32;85.72
62864;BME280;48954;59.950;11.014;2023-02-20T08:50:35;96901.78;;;2.40;85.74
62864;BME280;48954;59.950;11.014;2023-02-20T08:53:16;96912.46;;;2.49;85.35
62864;BME280;48954;59.950;11.014;2023-02-20T08:55:43;96916.51;;;2.60;85.19
62864;BME280;48954;59.950;11.014;2023-02-20T08:58:21;96911.48;;;2.71;84.77
62864;BME280;48954;59.950;11.014;2023-02-20T09:01:02;96921.63;;;2.91;84.21
62864;BME280;48954;59.950;11.014;2023-02-20T09:03:28;96926.77;;;3.06;83.47
62864;BME280;48954;59.950;11.014;2023-02-20T09:05:56;96929.70;;;3.17;82.65
62864;BME280;48954;59.950;11.014;2023-02-20T09:08:23;96932.73;;;3.30;82.23
62864;BME280;48954;59.950;11.014;2023-02-20T09:10:52;96943.61;;;3.48;81.48
62864;BME280;48954;59.950;11.014;2023-02-20T09:13:19;96943.30;;;3.65;80.72
62864;BME280;48954;59.950;11.014;2023-02-20T09:15:48;96943.13;;;3.77;80.23
62864;BME280;48954;59.950;11.014;2023-02-20T09:18:15;96948.14;;;3.89;79.46
62864;BME280;48954;59.950;11.014;2023-02-20T09:20:42;96939.91;;;4.15;79.01
62864;BME280;48954;59.950;11.014;2023-02-20T09:23:10;96939.48;;;4.37;78.38
62864;BME280;48954;59.950;11.014;2023-02-20T09:25:42;96936.92;;;4.49;77.77
62864;BME280;48954;59.950;11.014;2023-02-20T09:28:09;96937.41;;;4.69;76.77
62864;BME280;48954;59.950;11.014;2023-02-20T09:30:36;96932.89;;;4.95;75.45
62864;BME280;48954;59.950;11.014;2023-02-20T09:33:03;96938.77;;;5.19;74.56
62864;BME280;48954;59.950;11.014;2023-02-20T09:35:30;96941.42;;;5.20;74.22
62864;BME280;48954;59.950;11.014;2023-02-20T09:37:56;96942.27;;;5.28;72.87
62864;BME280;48954;59.950;11.014;2023-02-20T09:40:28;96941.23;;;5.35;72.92
62864;BME280;48954;59.950;11.014;2023-02-20T09:43:08;96944.00;;;5.75;72.71
62864;BME280;48954;59.950;11.014;2023-02-20T09:45:42;96939.23;;;6.19;71.95
62864;BME280;48954;59.950;11.014;2023-02-20T09:51:08;96940.59;;;6.27;69.60
62864;BME280;48954;59.950;11.014;2023-02-20T09:53:42;96947.60;;;6.28;69.97
62864;BME280;48954;59.950;11.014;2023-02-20T09:56:17;96955.30;;;6.32;69.93
62864;BME280;48954;59.950;11.014;2023-02-20T10:01:20;96962.17;;;7.08;67.90
62864;BME280;48954;59.950;11.014;2023-02-20T10:06:23;96968.08;;;7.44;66.07
62864;BME280;48954;59.950;11.014;2023-02-20T10:08:51;96971.73;;;7.85;65.17
62864;BME280;48954;59.950;11.014;2023-02-20T10:16:54;96984.52;;;7.72;63.59
62864;BME280;48954;59.950;11.014;2023-02-20T10:19:42;96989.38;;;7.71;63.35
62864;BME280;48954;59.950;11.014;2023-02-20T10:22:31;96994.40;;;7.84;62.25
62864;BME280;48954;59.950;11.014;2023-02-20T10:25:19;96989.07;;;7.71;62.91
62864;BME280;48954;59.950;11.014;2023-02-20T10:28:10;96984.85;;;7.70;62.60
62864;BME280;48954;59.950;11.014;2023-02-20T10:30:42;96988.86;;;7.91;62.32
62864;BME280;48954;59.950;11.014;2023-02-20T10:36:32;97002.44;;;8.63;61.22
62864;BME280;48954;59.950;11.014;2023-02-20T10:39:08;97001.33;;;8.70;59.67
62864;BME280;48954;59.950;11.014;2023-02-20T10:44:35;96992.54;;;9.35;58.72
62864;BME280;48954;59.950;11.014;2023-02-20T10:47:11;96989.11;;;10.03;57.99
62864;BME280;48954;59.950;11.014;2023-02-20T10:49:44;96984.10;;;10.64;56.23
62864;BME280;48954;59.950;11.014;2023-02-20T10:52:16;96985.66;;;11.19;55.03
62864;BME280;48954;59.950;11.014;2023-02-20T10:54:50;96992.55;;;11.54;54.45
62864;BME280;48954;59.950;11.014;2023-02-20T10:57:32;96992.29;;;11.17;53.73
62864;BME280;48954;59.950;11.014;2023-02-20T11:00:19;96990.58;;;10.21;53.61
62864;BME280;48954;59.950;11.014;2023-02-20T11:02:53;97000.75;;;9.54;53.01
62864;BME280;48954;59.950;11.014;2023-02-20T11:05:25;97009.48;;;9.44;54.20
62864;BME280;48954;59.950;11.014;2023-02-20T11:07:54;97016.68;;;9.72;53.66
62864;BME280;48954;59.950;11.014;2023-02-20T11:10:20;97020.59;;;10.19;52.97
62864;BME280;48954;59.950;11.014;2023-02-20T11:12:49;97014.05;;;10.73;51.98
62864;BME280;48954;59.950;11.014;2023-02-20T11:15:24;97005.23;;;10.92;51.43
62864;BME280;48954;59.950;11.014;2023-02-20T11:17:53;97001.97;;;10.40;50.51
62864;BME280;48954;59.950;11.014;2023-02-20T11:22:59;97003.64;;;9.60;49.62
62864;BME280;48954;59.950;11.014;2023-02-20T11:25:28;97005.35;;;9.14;49.70
62864;BME280;48954;59.950;11.014;2023-02-20T11:27:57;97016.39;;;8.89;50.33
62864;BME280;48954;59.950;11.014;2023-02-20T11:35:33;97006.21;;;9.47;49.44
62864;BME280;48954;59.950;11.014;2023-02-20T11:38:21;96997.38;;;9.33;49.18
62864;BME280;48954;59.950;11.014;2023-02-20T11:43:21;97011.63;;;8.98;49.02
62864;BME280;48954;59.950;11.014;2023-02-20T11:45:49;97016.41;;;9.09;48.47
62864;BME280;48954;59.950;11.014;2023-02-20T11:48:18;97030.35;;;9.14;48.55
62864;BME280;48954;59.950;11.014;2023-02-20T11:50:47;97035.05;;;9.09;48.52
62864;BME280;48954;59.950;11.014;2023-02-20T11:53:29;97041.79;;;9.09;48.86
62864;BME280;48954;59.950;11.014;2023-02-20T11:56:12;97053.71;;;8.97;48.87
62864;BME280;48954;59.950;11.014;2023-02-20T11:58:41;97049.60;;;8.83;48.66
62864;BME280;48954;59.950;11.014;2023-02-20T12:01:35;97052.79;;;8.74;48.66
62864;BME280;48954;59.950;11.014;2023-02-20T12:04:17;97053.33;;;8.63;48.45
62864;BME280;48954;59.950;11.014;2023-02-20T12:06:44;97066.10;;;8.56;47.54
62864;BME280;48954;59.950;11.014;2023-02-20T12:09:13;97071.60;;;8.83;46.54
62864;BME280;48954;59.950;11.014;2023-02-20T12:11:42;97069.47;;;9.01;46.78
62864;BME280;48954;59.950;11.014;2023-02-20T12:14:13;97059.50;;;8.96;46.88
62864;BME280;48954;59.950;11.014;2023-02-20T12:16:53;97062.50;;;9.01;46.61
62864;BME280;48954;59.950;11.014;2023-02-20T12:19:46;97065.73;;;8.99;45.96
62864;BME280;48954;59.950;11.014;2023-02-20T12:22:36;97063.16;;;9.30;46.46
62864;BME280;48954;59.950;11.014;2023-02-20T12:25:25;97065.28;;;9.45;46.21
62864;BME280;48954;59.950;11.014;2023-02-20T12:33:47;97082.22;;;9.08;45.62
62864;BME280;48954;59.950;11.014;2023-02-20T12:36:46;97084.23;;;9.09;45.65
62864;BME280;48954;59.950;11.014;2023-02-20T12:39:25;97078.95;;;8.96;46.07
62864;BME280;48954;59.950;11.014;2023-02-20T12:42:08;97084.60;;;8.94;46.24
62864;BME280;48954;59.950;11.014;2023-02-20T12:47:42;97080.09;;;8.63;45.40
62864;BME280;48954;59.950;11.014;2023-02-20T12:55:59;97103.63;;;7.91;45.33
62864;BME280;48954;59.950;11.014;2023-02-20T13:01:14;97115.70;;;7.63;45.79
62864;BME280;48954;59.950;11.014;2023-02-20T13:03:56;97127.04;;;7.51;46.16
62864;BME280;48954;59.950;11.014;2023-02-20T13:06:29;97124.38;;;7.42;45.95
62864;BME280;48954;59.950;11.014;2023-02-20T13:11:42;97122.11;;;7.41;46.80
62864;BME280;48954;59.950;11.014;2023-02-20T13:16:44;97130.70;;;7.40;46.04
62864;BME280;48954;59.950;11.014;2023-02-20T13:19:22;97133.22;;;7.40;46.29
62864;BME280;48954;59.950;11.014;2023-02-20T13:21:50;97136.27;;;7.39;45.82
62864;BME280;48954;59.950;11.014;2023-02-20T13:26:55;97145.11;;;7.37;45.94
62864;BME280;48954;59.950;11.014;2023-02-20T13:29:27;97146.91;;;7.37;46.60
62864;BME280;48954;59.950;11.014;2023-02-20T13:31:55;97150.81;;;7.39;46.28
62864;BME280;48954;59.950;11.014;2023-02-20T13:34:27;97151.16;;;7.42;45.83
62864;BME280;48954;59.950;11.014;2023-02-20T13:36:54;97157.70;;;7.46;45.82
62864;BME280;48954;59.950;11.014;2023-02-20T13:39:38;97161.27;;;7.51;45.69
62864;BME280;48954;59.950;11.014;2023-02-20T13:42:27;97166.77;;;7.56;45.33
62864;BME280;48954;59.950;11.014;2023-02-20T13:44:54;97160.10;;;7.62;45.54
62864;BME280;48954;59.950;11.014;2023-02-20T13:47:32;97163.36;;;7.65;45.58
62864;BME280;48954;59.950;11.014;2023-02-20T13:49:59;97162.43;;;7.62;45.55
62864;BME280;48954;59.950;11.014;2023-02-20T13:52:38;97163.91;;;7.63;45.14
62864;BME280;48954;59.950;11.014;2023-02-20T13:55:22;97174.33;;;7.68;45.05
62864;BME280;48954;59.950;11.014;2023-02-20T14:00:53;97164.53;;;7.92;45.23
62864;BME280;48954;59.950;11.014;2023-02-20T14:03:25;97164.35;;;8.04;44.83
62864;BME280;48954;59.950;11.014;2023-02-20T14:06:21;97156.97;;;8.41;44.18
62864;BME280;48954;59.950;11.014;2023-02-20T14:09:12;97151.80;;;8.70;43.26
62864;BME280;48954;59.950;11.014;2023-02-20T14:11:41;97150.02;;;8.61;43.93
62864;BME280;48954;59.950;11.014;2023-02-20T14:14:32;97148.86;;;8.53;44.28
62864;BME280;48954;59.950;11.014;2023-02-20T14:17:18;97152.20;;;8.56;43.93
62864;BME280;48954;59.950;11.014;2023-02-20T14:19:53;97154.59;;;8.71;44.02
62864;BME280;48954;59.950;11.014;2023-02-20T14:22:33;97151.85;;;9.42;43.70
62864;BME280;48954;59.950;11.014;2023-02-20T14:27:38;97130.98;;;10.73;41.50
62864;BME280;48954;59.950;11.014;2023-02-20T14:30:10;97127.88;;;11.75;40.02
62864;BME280;48954;59.950;11.014;2023-02-20T14:32:42;97128.30;;;12.68;39.84
62864;BME280;48954;59.950;11.014;2023-02-20T14:35:42;97138.55;;;13.84;38.83
62864;BME280;48954;59.950;11.014;2023-02-20T14:40:47;97152.10;;;12.87;37.96
62864;BME280;48954;59.950;11.014;2023-02-20T14:43:23;97160.77;;;11.82;38.46
62864;BME280;48954;59.950;11.014;2023-02-20T14:46:25;97168.21;;;13.00;37.86
62864;BME280;48954;59.950;11.014;2023-02-20T14:49:08;97169.26;;;14.67;36.61
62864;BME280;48954;59.950;11.014;2023-02-20T14:51:37;97169.29;;;15.44;34.77
62864;BME280;48954;59.950;11.014;2023-02-20T14:56:47;97177.39;;;15.07;34.90
62864;BME280;48954;59.950;11.014;2023-02-20T14:59:37;97180.00;;;13.55;35.12
62864;BME280;48954;59.950;11.014;2023-02-20T15:02:27;97183.88;;;12.25;36.12
62864;BME280;48954;59.950;11.014;2023-02-20T15:05:01;97192.34;;;11.23;35.97
62864;BME280;48954;59.950;11.014;2023-02-20T15:07:30;97185.77;;;10.51;37.08
62864;BME280;48954;59.950;11.014;2023-02-20T15:09:59;97187.41;;;10.06;37.19
62864;BME280;48954;59.950;11.014;2023-02-20T15:12:32;97189.80;;;9.62;37.92
62864;BME280;48954;59.950;11.014;2023-02-20T15:15:03;97192.98;;;9.33;38.56
62864;BME280;48954;59.950;11.014;2023-02-20T15:17:32;97190.41;;;9.15;38.78
62864;BME280;48954;59.950;11.014;2023-02-20T15:19:59;97190.20;;;9.06;39.02
62864;BME280;48954;59.950;11.014;2023-02-20T15:22:35;97192.15;;;9.07;39.01
62864;BME280;48954;59.950;11.014;2023-02-20T15:25:31;97189.84;;;8.90;39.11
62864;BME280;48954;59.950;11.014;2023-02-20T15:28:13;97186.77;;;8.73;39.55
62864;BME280;48954;59.950;11.014;2023-02-20T15:33:36;97188.71;;;8.26;40.10
62864;BME280;48954;59.950;11.014;2023-02-20T15:36:05;97192.63;;;7.99;40.28
62864;BME280;48954;59.950;11.014;2023-02-20T15:38:34;97190.54;;;7.77;40.56
62864;BME280;48954;59.950;11.014;2023-02-20T15:41:02;97199.14;;;7.55;40.99
62864;BME280;48954;59.950;11.014;2023-02-20T15:43:32;97201.36;;;7.35;41.27
62864;BME280;48954;59.950;11.014;2023-02-20T15:46:09;97200.79;;;7.14;41.61
62864;BME280;48954;59.950;11.014;2023-02-20T15:48:38;97203.52;;;6.96;41.76
62864;BME280;48954;59.950;11.014;2023-02-20T15:51:05;97197.50;;;6.79;42.10
62864;BME280;48954;59.950;11.014;2023-02-20T15:53:33;97190.36;;;6.67;42.35
62864;BME280;48954;59.950;11.014;2023-02-20T15:56:10;97190.40;;;6.54;42.43
62864;BME280;48954;59.950;11.014;2023-02-20T15:58:38;97193.63;;;6.40;42.97
62864;BME280;48954;59.950;11.014;2023-02-20T16:01:05;97197.95;;;6.29;43.26
62864;BME280;48954;59.950;11.014;2023-02-20T16:03:33;97209.89;;;6.18;43.50
62864;BME280;48954;59.950;11.014;2023-02-20T16:06:00;97216.45;;;6.07;43.57
62864;BME280;48954;59.950;11.014;2023-02-20T16:08:28;97222.06;;;5.99;43.90
62864;BME280;48954;59.950;11.014;2023-02-20T16:10:55;97223.77;;;5.90;43.98
62864;BME280;48954;59.950;11.014;2023-02-20T16:13:28;97224.84;;;5.82;44.23
62864;BME280;48954;59.950;11.014;2023-02-20T16:15:56;97215.94;;;5.75;44.42
62864;BME280;48954;59.950;11.014;2023-02-20T16:18:25;97218.45;;;5.68;44.79
62864;BME280;48954;59.950;11.014;2023-02-20T16:20:52;97225.36;;;5.60;44.94
62864;BME280;48954;59.950;11.014;2023-02-20T16:23:20;97222.70;;;5.52;45.12
62864;BME280;48954;59.950;11.014;2023-02-20T16:25:48;97229.23;;;5.43;45.40
62864;BME280;48954;59.950;11.014;2023-02-20T16:28:16;97229.05;;;5.34;45.66
62864;BME280;48954;59.950;11.014;2023-02-20T16:30:43;97227.94;;;5.24;45.79
62864;BME280;48954;59.950;11.014;2023-02-20T16:33:20;97225.66;;;5.16;46.13
62864;BME280;48954;59.950;11.014;2023-02-20T16:35:50;97230.60;;;5.08;46.37
62864;BME280;48954;59.950;11.014;2023-02-20T16:38:18;97224.60;;;5.01;46.53
62864;BME280;48954;59.950;11.014;2023-02-20T16:40:45;97226.74;;;4.93;46.86
62864;BME280;48954;59.950;11.014;2023-02-20T16:43:13;97228.27;;;4.86;46.88